createdAt,value
2023-10-20T00:00:27.530Z,6.83
2023-10-20T00:02:54.576Z,6.89
2023-10-20T00:05:21.526Z,6.16
2023-10-20T00:07:48.554Z,6.69
2023-10-20T00:10:15.491Z,6.88
2023-10-20T00:12:42.470Z,6.53
2023-10-20T00:15:16.027Z,6.67
2023-10-20T00:17:43.941Z,6.28
2023-10-20T00:20:11.884Z,6.24
2023-10-20T00:22:38.970Z,6.39
2023-10-20T00:25:06.368Z,6.17
2023-10-20T00:27:33.313Z,5.83
2023-10-20T00:30:00.336Z,6.40
2023-10-20T00:32:27.371Z,5.68
2023-10-20T00:34:54.432Z,5.52
2023-10-20T00:37:21.794Z,6.00
2023-10-20T00:39:48.806Z,6.27
2023-10-20T00:42:15.906Z,6.19
2023-10-20T00:44:42.995Z,6.13
2023-10-20T00:47:11.324Z,6.38
2023-10-20T00:49:38.945Z,6.34
2023-10-20T00:52:08.002Z,5.88
2023-10-20T00:54:35.299Z,5.96
2023-10-20T00:57:02.762Z,5.46
2023-10-20T00:59:29.735Z,5.63
2023-10-20T01:01:56.878Z,6.14
2023-10-20T01:04:23.942Z,5.34
2023-10-20T01:06:51.422Z,5.02
2023-10-20T01:09:28.872Z,6.64
2023-10-20T01:11:56.707Z,6.28
2023-10-20T01:14:24.210Z,6.87
2023-10-20T01:16:51.269Z,6.18
2023-10-20T01:19:18.238Z,6.35
2023-10-20T01:21:45.183Z,6.73
2023-10-20T01:24:12.186Z,5.62
2023-10-20T01:26:40.340Z,6.21
2023-10-20T01:29:11.060Z,5.33
2023-10-20T01:31:38.184Z,6.25
2023-10-20T01:34:05.258Z,6.11
2023-10-20T01:36:32.303Z,6.53
2023-10-20T01:38:59.460Z,6.08
2023-10-20T01:41:27.719Z,6.38
2023-10-20T01:43:55.003Z,6.47
2023-10-20T01:46:21.982Z,6.39
2023-10-20T01:48:49.184Z,6.19
2023-10-20T01:51:16.082Z,6.00
2023-10-20T01:53:43.024Z,6.09
2023-10-20T01:56:11.798Z,6.12
2023-10-20T01:58:38.709Z,5.32
2023-10-20T02:01:05.856Z,6.08
2023-10-20T02:03:32.957Z,6.15
2023-10-20T02:06:00.174Z,5.94
2023-10-20T02:08:27.250Z,5.41
2023-10-20T02:10:54.235Z,6.63
2023-10-20T02:13:21.418Z,6.25
2023-10-20T02:15:49.944Z,6.67
2023-10-20T02:18:17.144Z,5.05
2023-10-20T02:20:58.245Z,5.64
2023-10-20T02:23:26.087Z,5.88
2023-10-20T02:26:03.437Z,6.11
2023-10-20T02:28:30.606Z,6.04
2023-10-20T02:31:00.399Z,6.02
2023-10-20T02:33:27.902Z,5.90
2023-10-20T02:35:58.218Z,6.40
2023-10-20T02:38:25.161Z,6.08
2023-10-20T02:40:53.829Z,6.10
2023-10-20T02:43:21.280Z,6.62
2023-10-20T02:45:56.012Z,6.18
2023-10-20T02:48:24.538Z,6.17
2023-10-20T02:50:52.003Z,6.13
2023-10-20T02:53:21.916Z,5.96
2023-10-20T02:55:50.852Z,5.84
2023-10-20T02:58:18.154Z,6.79
2023-10-20T03:00:46.665Z,6.61
2023-10-20T03:03:15.127Z,6.82
2023-10-20T03:05:47.041Z,6.63
2023-10-20T03:08:14.417Z,6.56
2023-10-20T03:10:41.336Z,6.49
2023-10-20T03:13:08.253Z,6.17
2023-10-20T03:15:35.256Z,6.44
2023-10-20T03:18:02.235Z,6.12
2023-10-20T03:20:34.410Z,6.58
2023-10-20T03:23:02.612Z,6.33
2023-10-20T03:25:32.796Z,6.08
2023-10-20T03:27:59.708Z,5.82
2023-10-20T03:30:26.634Z,6.32
2023-10-20T03:32:55.307Z,6.29
2023-10-20T03:35:22.912Z,6.11
2023-10-20T03:37:58.347Z,6.40
2023-10-20T03:40:32.324Z,6.62
2023-10-20T03:42:59.694Z,6.37
2023-10-20T03:45:27.032Z,6.26
2023-10-20T03:47:54.927Z,5.96
2023-10-20T03:50:22.406Z,6.25
2023-10-20T03:52:50.381Z,6.00
2023-10-20T03:55:17.476Z,6.41
2023-10-20T03:57:45.976Z,6.67
2023-10-20T04:00:29.578Z,6.12
2023-10-20T04:02:57.960Z,6.39
2023-10-20T04:05:25.606Z,5.93
2023-10-20T04:07:52.567Z,5.92
2023-10-20T04:10:22.273Z,5.48
2023-10-20T04:12:50.469Z,5.86
2023-10-20T04:15:18.403Z,5.82
2023-10-20T04:17:46.760Z,6.34
2023-10-20T04:20:19.624Z,6.37
2023-10-20T04:22:50.862Z,6.57
2023-10-20T04:25:22.190Z,6.58
2023-10-20T04:28:16.234Z,6.72
2023-10-20T04:31:01.803Z,6.67
2023-10-20T04:33:47.276Z,6.31
2023-10-20T04:36:32.935Z,6.30
2023-10-20T04:39:18.244Z,6.28
2023-10-20T04:42:03.905Z,6.59
2023-10-20T04:44:49.052Z,6.64
2023-10-20T04:47:45.171Z,6.56
2023-10-20T04:50:30.169Z,6.79
2023-10-20T04:53:00.119Z,6.48
2023-10-20T04:55:27.355Z,6.41
2023-10-20T04:57:59.238Z,6.50
2023-10-20T05:00:34.402Z,6.43
2023-10-20T05:03:01.295Z,6.12
2023-10-20T05:05:35.900Z,6.46
2023-10-20T05:08:23.076Z,6.63
2023-10-20T05:10:52.091Z,6.88
2023-10-20T05:13:20.405Z,6.70
2023-10-20T05:15:49.313Z,6.82
2023-10-20T05:18:19.190Z,6.62
2023-10-20T05:20:47.637Z,6.41
2023-10-20T05:23:17.418Z,6.61
2023-10-20T05:25:48.580Z,6.67
2023-10-20T05:28:17.807Z,6.99
2023-10-20T05:30:46.575Z,6.95
2023-10-20T05:33:14.539Z,6.52
2023-10-20T05:35:42.382Z,6.36
2023-10-20T05:38:09.834Z,6.76
2023-10-20T05:40:38.029Z,7.01
2023-10-20T05:43:06.907Z,6.60
2023-10-20T05:45:43.266Z,6.87
2023-10-20T05:48:10.578Z,6.59
2023-10-20T05:50:40.114Z,6.81
2023-10-20T05:53:07.724Z,6.66
2023-10-20T05:55:34.728Z,7.07
2023-10-20T05:58:03.700Z,7.09
2023-10-20T06:00:30.999Z,6.74
2023-10-20T06:02:58.114Z,6.94
2023-10-20T06:05:25.154Z,6.57
2023-10-20T06:07:52.127Z,6.44
2023-10-20T06:10:24.996Z,6.50
2023-10-20T06:12:55.857Z,6.85
2023-10-20T06:15:23.269Z,6.74
2023-10-20T06:17:52.776Z,6.98
2023-10-20T06:20:20.198Z,6.91
2023-10-20T06:22:47.386Z,6.78
2023-10-20T06:25:14.640Z,6.48
2023-10-20T06:27:45.629Z,6.45
2023-10-20T06:30:21.307Z,6.83
2023-10-20T06:32:53.448Z,6.60
2023-10-20T06:35:20.637Z,6.22
2023-10-20T06:37:59.062Z,6.36
2023-10-20T06:40:26.375Z,6.68
2023-10-20T06:42:56.995Z,6.05
2023-10-20T06:45:24.076Z,6.05
2023-10-20T06:47:51.088Z,5.79
2023-10-20T06:50:18.237Z,4.96
2023-10-20T06:52:45.221Z,5.46
2023-10-20T06:55:40.551Z,6.32
2023-10-20T06:57:59.153Z,6.14
2023-10-20T07:00:27.446Z,5.76
2023-10-20T07:02:54.496Z,5.67
2023-10-20T07:05:25.538Z,5.72
2023-10-20T07:07:53.395Z,5.87
2023-10-20T07:10:23.357Z,6.38
2023-10-20T07:12:50.467Z,6.27
2023-10-20T07:15:17.734Z,6.57
2023-10-20T07:17:44.961Z,6.46
2023-10-20T07:20:12.251Z,6.35
2023-10-20T07:22:39.285Z,6.66
2023-10-20T07:25:06.653Z,6.09
2023-10-20T07:27:33.794Z,6.74
2023-10-20T07:30:01.333Z,7.00
2023-10-20T07:32:28.553Z,6.72
2023-10-20T07:34:55.647Z,6.16
2023-10-20T07:37:22.758Z,6.70
2023-10-20T07:39:51.256Z,6.27
2023-10-20T07:42:20.978Z,6.19
2023-10-20T07:44:48.551Z,6.94
2023-10-20T07:47:15.536Z,5.77
2023-10-20T07:49:42.498Z,6.15
2023-10-20T07:52:09.788Z,6.82
2023-10-20T07:54:36.923Z,6.36
2023-10-20T07:57:04.544Z,6.69
2023-10-20T07:59:31.909Z,5.98
2023-10-20T08:01:59.298Z,6.61
2023-10-20T08:04:28.107Z,7.26
2023-10-20T08:06:56.539Z,6.00
2023-10-20T08:09:23.716Z,6.44
2023-10-20T08:11:51.223Z,6.60
2023-10-20T08:14:18.345Z,7.45
2023-10-20T08:16:45.520Z,6.85
2023-10-20T08:19:12.609Z,6.43
2023-10-20T08:21:40.024Z,6.68
2023-10-20T08:24:08.313Z,6.53
2023-10-20T08:26:35.601Z,7.42
2023-10-20T08:29:02.608Z,7.84
2023-10-20T08:31:29.617Z,7.31
2023-10-20T08:33:56.623Z,7.45
2023-10-20T08:36:23.667Z,7.04
2023-10-20T08:38:52.981Z,7.55
2023-10-20T08:41:23.969Z,7.72
2023-10-20T08:43:51.385Z,7.61
2023-10-20T08:46:19.809Z,7.75
2023-10-20T08:48:49.066Z,6.99
2023-10-20T08:51:18.275Z,6.96
2023-10-20T08:53:47.508Z,7.30
2023-10-20T08:56:15.531Z,7.02
2023-10-20T08:58:46.600Z,7.70
2023-10-20T09:01:14.857Z,7.56
2023-10-20T09:03:45.638Z,6.89
2023-10-20T09:06:15.918Z,7.17
2023-10-20T09:08:45.156Z,7.08
2023-10-20T09:11:13.444Z,6.84
2023-10-20T09:13:43.424Z,7.54
2023-10-20T09:16:12.295Z,7.96
2023-10-20T09:18:46.367Z,7.76
2023-10-20T09:21:15.086Z,7.39
2023-10-20T09:23:53.619Z,6.72
2023-10-20T09:26:21.914Z,7.80
2023-10-20T09:28:54.887Z,7.92
2023-10-20T09:31:23.276Z,8.16
2023-10-20T09:33:51.302Z,8.17
2023-10-20T09:36:19.380Z,8.23
2023-10-20T09:38:53.236Z,7.25
2023-10-20T09:41:28.753Z,7.88
2023-10-20T09:44:08.018Z,8.27
2023-10-20T09:46:47.000Z,7.31
2023-10-20T09:49:27.962Z,7.86
2023-10-20T09:51:56.907Z,8.20
2023-10-20T09:54:30.122Z,8.44
2023-10-20T09:57:00.864Z,7.27
2023-10-20T09:59:29.370Z,8.16
2023-10-20T10:01:58.427Z,8.41
2023-10-20T10:04:43.035Z,8.75
2023-10-20T10:07:10.241Z,7.95
2023-10-20T10:09:39.422Z,8.44
2023-10-20T10:12:11.909Z,8.69
2023-10-20T10:14:39.535Z,8.58
2023-10-20T10:17:11.551Z,8.43
2023-10-20T10:19:52.527Z,8.98
2023-10-20T10:22:30.827Z,9.31
2023-10-20T10:25:01.544Z,9.13
2023-10-20T10:27:29.824Z,8.55
2023-10-20T10:30:07.261Z,9.06
2023-10-20T10:32:43.070Z,8.22
2023-10-20T10:35:11.075Z,9.05
2023-10-20T10:37:39.332Z,8.88
2023-10-20T10:40:12.017Z,9.45
2023-10-20T10:42:47.660Z,9.02
2023-10-20T10:45:30.437Z,8.64
2023-10-20T10:48:13.969Z,8.63
2023-10-20T10:50:43.489Z,9.04
2023-10-20T10:53:11.897Z,8.47
2023-10-20T10:55:39.491Z,8.78
2023-10-20T10:58:08.639Z,9.24
2023-10-20T11:00:37.471Z,9.38
2023-10-20T11:03:06.892Z,9.07
2023-10-20T11:05:35.387Z,8.22
2023-10-20T11:08:06.861Z,9.35
2023-10-20T11:10:36.384Z,8.68
2023-10-20T11:13:12.095Z,8.98
2023-10-20T11:15:40.740Z,9.19
2023-10-20T11:18:09.409Z,9.41
2023-10-20T11:20:43.257Z,8.75
2023-10-20T11:23:12.636Z,8.72
2023-10-20T11:25:42.069Z,9.65
2023-10-20T11:28:09.393Z,8.43
2023-10-20T11:30:43.405Z,9.37
2023-10-20T11:33:16.549Z,8.52
2023-10-20T11:35:45.541Z,7.40
2023-10-20T11:38:18.702Z,7.90
2023-10-20T11:40:49.198Z,8.77
2023-10-20T11:43:19.868Z,8.57
2023-10-20T11:45:47.257Z,8.17
2023-10-20T11:48:14.533Z,8.46
2023-10-20T11:50:41.638Z,7.78
2023-10-20T11:53:08.682Z,8.80
2023-10-20T11:55:36.293Z,8.69
2023-10-20T11:58:05.370Z,9.00
2023-10-20T12:00:32.421Z,9.31
2023-10-20T12:02:59.884Z,9.31
2023-10-20T12:05:33.304Z,9.84
2023-10-20T12:08:14.147Z,9.13
2023-10-20T12:10:41.494Z,9.02
2023-10-20T12:13:15.726Z,8.80
2023-10-20T12:15:58.917Z,9.62
2023-10-20T12:18:49.565Z,9.00
2023-10-20T12:21:16.808Z,9.66
2023-10-20T12:23:47.161Z,9.53
2023-10-20T12:26:31.788Z,9.97
2023-10-20T12:29:08.265Z,10.09
2023-10-20T12:31:52.237Z,10.78
2023-10-20T12:35:11.500Z,11.53
2023-10-20T12:37:52.027Z,9.58
2023-10-20T12:40:20.125Z,9.85
2023-10-20T12:42:59.515Z,9.82
2023-10-20T12:45:38.444Z,10.59
2023-10-20T12:48:25.552Z,9.54
2023-10-20T12:51:15.391Z,10.32
2023-10-20T12:53:42.558Z,10.14
2023-10-20T12:56:26.389Z,11.18
2023-10-20T12:59:08.172Z,10.81
2023-10-20T13:02:14.264Z,11.20
2023-10-20T13:04:41.589Z,10.35
2023-10-20T13:07:09.260Z,10.16
2023-10-20T13:09:36.673Z,9.90
2023-10-20T13:12:03.920Z,9.80
2023-10-20T13:14:36.253Z,10.48
2023-10-20T13:17:03.620Z,9.72
2023-10-20T13:26:40.634Z,9.85
2023-10-20T13:29:08.006Z,9.33
2023-10-20T13:31:38.346Z,9.17
2023-10-20T13:34:24.030Z,10.61
2023-10-20T13:36:51.330Z,9.80
2023-10-20T13:41:57.822Z,9.98
2023-10-20T13:44:25.203Z,10.43
2023-10-20T13:46:52.196Z,10.07
2023-10-20T13:49:19.264Z,9.83
2023-10-20T13:51:46.253Z,9.83
2023-10-20T13:54:36.674Z,9.75
2023-10-20T13:57:04.219Z,9.13
2023-10-20T13:59:31.510Z,10.47
2023-10-20T14:01:58.692Z,9.96
2023-10-20T14:04:34.432Z,9.80
2023-10-20T14:07:05.483Z,10.13
2023-10-20T14:09:32.848Z,11.22
2023-10-20T14:11:59.964Z,10.12
2023-10-20T14:14:27.062Z,9.90
2023-10-20T14:16:56.935Z,10.13
2023-10-20T14:19:23.889Z,10.05
2023-10-20T14:21:50.888Z,10.27
2023-10-20T14:24:17.885Z,9.83
2023-10-20T14:26:44.860Z,9.81
2023-10-20T14:29:11.804Z,9.16
2023-10-20T14:31:38.904Z,9.62
2023-10-20T14:34:06.009Z,9.04
2023-10-20T14:36:34.351Z,8.99
2023-10-20T14:39:01.350Z,10.27
2023-10-20T14:41:28.434Z,9.91
2023-10-20T14:43:55.654Z,9.85
2023-10-20T14:46:22.701Z,10.18
2023-10-20T14:48:49.715Z,10.34
2023-10-20T14:51:16.719Z,9.47
2023-10-20T14:53:45.128Z,9.22
2023-10-20T14:56:17.540Z,10.45
2023-10-20T14:58:46.739Z,10.05
2023-10-20T15:01:13.673Z,10.20
2023-10-20T15:03:40.872Z,10.57
2023-10-20T15:06:07.998Z,10.51
2023-10-20T15:08:34.979Z,10.15
2023-10-20T15:11:09.008Z,10.33
2023-10-20T15:13:36.582Z,10.67
2023-10-20T15:16:06.341Z,10.74
2023-10-20T15:18:33.644Z,10.08
2023-10-20T15:21:05.047Z,8.76
2023-10-20T15:38:11.565Z,10.39
2023-10-20T15:40:39.775Z,9.37
2023-10-20T15:43:07.177Z,9.55
2023-10-20T15:45:34.192Z,9.36
2023-10-20T15:48:05.476Z,9.95
2023-10-20T15:50:34.208Z,9.57
2023-10-20T15:53:01.348Z,9.54
2023-10-20T15:55:28.426Z,9.73
2023-10-20T15:57:55.464Z,9.48
2023-10-20T16:00:22.715Z,9.54
2023-10-20T16:02:50.012Z,9.52
2023-10-20T16:05:17.266Z,9.17
2023-10-20T16:07:44.217Z,9.65
2023-10-20T16:10:11.285Z,9.01
2023-10-20T16:12:38.282Z,8.94
2023-10-20T16:15:07.847Z,9.32
2023-10-20T16:17:35.177Z,9.18
2023-10-20T16:20:02.187Z,9.52
2023-10-20T16:22:29.272Z,9.14
2023-10-20T16:24:56.970Z,8.72
2023-10-20T17:19:40.364Z,9.32
2023-10-20T17:22:08.710Z,9.56
2023-10-20T17:24:35.739Z,9.32
2023-10-20T17:27:05.657Z,9.56
2023-10-20T17:29:33.518Z,9.46
2023-10-20T17:32:00.768Z,9.68
2023-10-20T17:34:29.225Z,8.77
2023-10-20T17:36:56.600Z,9.33
2023-10-20T17:39:29.646Z,9.47
2023-10-20T17:42:03.923Z,7.89
2023-10-20T17:44:31.934Z,7.62
2023-10-20T17:46:59.354Z,8.74
2023-10-20T17:49:27.533Z,7.85
2023-10-20T17:51:54.726Z,8.63
2023-10-20T17:54:22.298Z,8.00
2023-10-20T17:56:50.321Z,8.85
2023-10-20T17:59:20.432Z,9.59
2023-10-20T18:01:47.525Z,8.94
2023-10-20T18:04:18.206Z,9.26
2023-10-20T18:06:45.941Z,8.19
2023-10-20T18:09:13.703Z,7.66
2023-10-20T18:11:40.722Z,8.00
2023-10-20T18:14:07.784Z,8.35
2023-10-20T18:16:34.770Z,7.51
2023-10-20T18:19:01.889Z,7.97
2023-10-20T18:21:31.161Z,8.70
2023-10-20T18:24:00.189Z,8.67
2023-10-20T18:26:27.209Z,8.75
2023-10-20T18:28:54.222Z,8.30
2023-10-20T18:31:21.766Z,8.78
2023-10-20T18:33:48.998Z,8.80
2023-10-20T18:36:16.300Z,8.12
2023-10-20T18:38:43.329Z,8.77
2023-10-20T18:41:17.606Z,9.21
2023-10-20T18:43:44.966Z,8.24
2023-10-20T18:46:12.532Z,8.34
2023-10-20T18:48:39.846Z,8.57
2023-10-20T18:51:08.933Z,9.19
2023-10-20T18:53:36.408Z,9.16
2023-10-20T18:56:05.054Z,9.43
2023-10-20T18:58:32.771Z,9.09
2023-10-20T19:01:01.145Z,7.89
2023-10-20T19:03:28.483Z,9.39
2023-10-20T19:05:55.648Z,8.64
2023-10-20T19:08:22.625Z,9.22
2023-10-20T19:10:49.748Z,9.26
2023-10-20T19:13:16.762Z,9.14
2023-10-20T19:15:46.531Z,8.54
2023-10-20T19:18:13.531Z,8.68
2023-10-20T19:20:40.600Z,9.10
2023-10-20T19:23:10.147Z,9.12
2023-10-20T19:25:39.633Z,8.48
2023-10-20T19:28:07.926Z,8.36
2023-10-20T19:30:38.301Z,9.43
2023-10-20T19:33:05.576Z,9.25
2023-10-20T19:35:34.694Z,9.13
2023-10-20T19:38:01.993Z,9.14
2023-10-20T19:40:28.934Z,9.38
2023-10-20T19:42:57.552Z,8.00
2023-10-20T19:45:24.564Z,8.74
2023-10-20T19:47:52.493Z,8.86
2023-10-20T19:50:19.550Z,9.25
2023-10-20T19:52:47.088Z,8.88
2023-10-20T19:55:14.212Z,8.56
2023-10-20T19:57:41.312Z,9.51
2023-10-20T20:00:12.407Z,8.33
2023-10-20T20:02:42.526Z,7.89
2023-10-20T20:05:09.708Z,9.04
2023-10-20T20:07:37.469Z,8.22
2023-10-20T20:10:08.304Z,8.54
2023-10-20T20:12:35.559Z,9.03
2023-10-20T20:15:02.623Z,8.96
2023-10-20T20:17:30.299Z,8.92
2023-10-20T20:19:57.565Z,9.09
2023-10-20T20:22:24.545Z,9.70
2023-10-20T20:24:51.911Z,9.62
2023-10-20T20:27:20.536Z,8.91
2023-10-20T20:29:47.502Z,9.15
2023-10-20T20:32:14.457Z,8.82
2023-10-20T20:34:41.412Z,8.10
2023-10-20T20:37:08.472Z,8.85
2023-10-20T20:39:35.702Z,8.59
2023-10-20T20:42:02.822Z,8.56
2023-10-20T20:44:32.108Z,9.02
2023-10-20T20:46:59.855Z,8.54
2023-10-20T20:49:28.380Z,8.37
2023-10-20T20:51:55.287Z,8.88
2023-10-20T20:54:22.159Z,9.54
2023-10-20T20:56:49.150Z,9.11
2023-10-20T20:59:16.172Z,9.31
2023-10-20T21:01:43.181Z,9.42
2023-10-20T21:04:10.449Z,8.42
2023-10-20T21:06:37.866Z,8.22
2023-10-20T21:09:06.361Z,9.45
2023-10-20T21:11:33.443Z,9.71
2023-10-20T21:14:00.572Z,8.60
2023-10-20T21:16:27.660Z,8.20
2023-10-20T21:18:56.040Z,9.18
2023-10-20T21:21:25.329Z,8.70
2023-10-20T21:23:52.598Z,8.75
2023-10-20T21:26:19.624Z,8.35
2023-10-20T21:28:46.596Z,7.98
2023-10-20T21:31:13.686Z,8.23
2023-10-20T21:33:41.006Z,8.50
2023-10-20T21:36:09.174Z,7.58
2023-10-20T21:38:36.208Z,8.32
2023-10-20T21:41:03.182Z,8.30
2023-10-20T21:43:31.352Z,7.76
2023-10-20T21:45:59.676Z,7.75
2023-10-20T21:48:29.361Z,8.38
2023-10-20T21:51:03.924Z,8.51
2023-10-20T21:53:34.148Z,8.51
2023-10-20T21:56:02.456Z,8.77
2023-10-20T21:58:30.379Z,7.52
2023-10-20T22:00:57.461Z,8.22
2023-10-20T22:03:25.198Z,8.15
2023-10-20T22:05:53.142Z,8.43
2023-10-20T22:08:20.703Z,8.39
2023-10-20T22:10:48.001Z,8.73
2023-10-20T22:13:15.160Z,7.99
2023-10-20T22:15:42.190Z,8.10
2023-10-20T22:18:09.579Z,7.67
2023-10-20T22:20:36.861Z,7.63
2023-10-20T22:23:05.187Z,8.35
2023-10-20T22:25:32.177Z,7.94
2023-10-20T22:27:59.174Z,6.56
2023-10-20T22:30:26.777Z,7.22
2023-10-20T22:32:54.151Z,7.25
2023-10-20T22:35:21.468Z,7.85
2023-10-20T22:37:49.773Z,8.09
2023-10-20T22:40:17.597Z,7.07
2023-10-20T22:42:44.627Z,7.67
2023-10-20T22:45:11.654Z,6.25
2023-10-20T22:47:38.845Z,6.94
2023-10-20T22:50:09.411Z,7.85
2023-10-20T22:52:36.489Z,7.67
2023-10-20T22:55:05.166Z,6.33
2023-10-20T22:57:33.252Z,6.73
2023-10-20T23:00:00.636Z,6.58
2023-10-20T23:02:27.982Z,6.66
2023-10-20T23:04:55.182Z,6.72
2023-10-20T23:07:22.149Z,7.31
2023-10-20T23:09:49.110Z,7.67
2023-10-20T23:12:18.100Z,6.61
2023-10-20T23:14:45.187Z,7.50
2023-10-20T23:17:12.154Z,7.19
2023-10-20T23:19:39.156Z,7.59
2023-10-20T23:22:06.105Z,7.63
2023-10-20T23:24:33.094Z,7.11
2023-10-20T23:27:01.583Z,7.26
2023-10-20T23:29:28.992Z,7.00
2023-10-20T23:31:57.070Z,6.44
2023-10-20T23:34:24.009Z,7.15
2023-10-20T23:36:50.977Z,6.49
2023-10-20T23:39:17.957Z,7.33
2023-10-20T23:41:45.107Z,6.80
2023-10-20T23:44:12.116Z,7.20
2023-10-20T23:46:39.104Z,6.95
2023-10-20T23:49:06.282Z,6.77
2023-10-20T23:51:33.220Z,6.76
2023-10-20T23:54:00.198Z,6.95
2023-10-20T23:56:27.343Z,7.35
2023-10-20T23:58:54.294Z,7.49
